createdAt,value
2022-08-19T00:01:52.690Z,18.20
2022-08-19T00:04:23.404Z,17.13
2022-08-19T00:06:50.999Z,16.98
2022-08-19T00:09:20.644Z,17.40
2022-08-19T00:11:48.810Z,17.10
2022-08-19T00:14:18.000Z,17.05
2022-08-19T00:16:48.356Z,17.27
2022-08-19T00:19:16.522Z,18.23
2022-08-19T00:21:44.338Z,17.70
2022-08-19T00:24:13.659Z,17.45
2022-08-19T00:26:42.431Z,18.20
2022-08-19T00:29:11.653Z,18.70
2022-08-19T00:31:39.061Z,17.10
2022-08-19T00:34:06.654Z,18.38
2022-08-19T00:36:34.234Z,17.92
2022-08-19T00:39:01.744Z,17.42
2022-08-19T00:41:29.766Z,18.38
2022-08-19T00:44:05.342Z,19.15
2022-08-19T00:46:34.413Z,18.70
2022-08-19T00:49:04.257Z,18.08
2022-08-19T00:51:33.462Z,18.67
2022-08-19T00:54:02.273Z,18.33
2022-08-19T00:56:30.083Z,17.88
2022-08-19T00:58:59.663Z,18.58
2022-08-19T01:01:27.382Z,19.25
2022-08-19T01:03:58.058Z,18.77
2022-08-19T01:06:27.194Z,18.98
2022-08-19T01:08:56.189Z,18.63
2022-08-19T01:11:23.578Z,19.60
2022-08-19T01:13:51.683Z,18.50
2022-08-19T01:16:21.878Z,18.55
2022-08-19T01:18:50.094Z,17.83
2022-08-19T01:21:36.400Z,18.52
2022-08-19T01:24:04.611Z,18.05
2022-08-19T01:26:32.051Z,18.42
2022-08-19T01:29:02.123Z,19.67
2022-08-19T01:31:33.230Z,20.05
2022-08-19T01:34:02.012Z,19.77
2022-08-19T01:36:43.230Z,19.83
2022-08-19T01:39:13.428Z,20.77
2022-08-19T01:41:40.974Z,20.15
2022-08-19T01:44:17.703Z,20.00
2022-08-19T01:46:48.818Z,19.65
2022-08-19T01:49:18.719Z,17.80
2022-08-19T01:51:46.880Z,18.58
2022-08-19T01:54:23.458Z,17.65
2022-08-19T01:57:05.278Z,19.77
2022-08-19T01:59:33.519Z,18.35
2022-08-19T02:02:01.279Z,19.83
2022-08-19T02:04:28.649Z,19.00
2022-08-19T02:06:56.158Z,19.85
2022-08-19T02:09:23.397Z,19.75
2022-08-19T02:11:50.633Z,18.83
2022-08-19T02:14:18.289Z,19.00
2022-08-19T02:16:45.449Z,18.40
2022-08-19T02:19:12.779Z,18.50
2022-08-19T02:21:40.196Z,18.45
2022-08-19T02:24:07.693Z,19.27
2022-08-19T02:26:35.166Z,17.90
2022-08-19T02:29:02.599Z,19.40
2022-08-19T02:31:29.932Z,18.52
2022-08-19T02:33:57.471Z,18.65
2022-08-19T02:36:26.288Z,19.13
2022-08-19T02:38:55.514Z,19.73
2022-08-19T02:41:27.936Z,19.25
2022-08-19T02:44:30.053Z,19.20
2022-08-19T02:46:46.978Z,18.88
2022-08-19T02:49:17.245Z,19.58
2022-08-19T02:51:46.615Z,19.17
2022-08-19T02:54:15.041Z,20.50
2022-08-19T02:56:44.233Z,19.77
2022-08-19T02:59:13.078Z,20.58
2022-08-19T03:01:43.158Z,20.85
2022-08-19T03:04:13.053Z,20.45
2022-08-19T03:06:42.578Z,18.95
2022-08-19T03:09:10.208Z,18.65
2022-08-19T03:11:38.688Z,19.35
2022-08-19T03:14:07.159Z,19.73
2022-08-19T03:16:36.619Z,19.83
2022-08-19T03:19:04.139Z,18.48
2022-08-19T03:21:33.323Z,20.35
2022-08-19T03:24:07.028Z,19.45
2022-08-19T03:26:35.196Z,18.85
2022-08-19T03:29:04.865Z,18.83
2022-08-19T03:31:43.975Z,18.83
2022-08-19T03:34:15.943Z,18.95
2022-08-19T03:36:43.382Z,19.55
2022-08-19T03:39:11.776Z,19.77
2022-08-19T03:41:45.422Z,19.35
2022-08-19T03:44:17.055Z,19.45
2022-08-19T03:46:48.671Z,19.48
2022-08-19T03:49:18.281Z,18.67
2022-08-19T03:51:47.224Z,20.63
2022-08-19T03:54:16.767Z,19.27
2022-08-19T03:56:45.738Z,19.80
2022-08-19T03:59:15.979Z,20.50
2022-08-19T04:01:44.533Z,18.98
2022-08-19T04:04:11.744Z,18.88
2022-08-19T04:06:40.208Z,19.35
2022-08-19T04:09:10.420Z,18.23
2022-08-19T04:11:45.012Z,18.35
2022-08-19T04:14:15.070Z,18.75
2022-08-19T04:16:45.404Z,17.92
2022-08-19T04:19:13.693Z,18.63
2022-08-19T04:21:41.442Z,18.10
2022-08-19T04:24:10.732Z,18.88
2022-08-19T04:26:38.613Z,17.65
2022-08-19T04:29:12.527Z,17.80
2022-08-19T04:31:42.135Z,18.35
2022-08-19T04:34:11.963Z,18.40
2022-08-19T04:36:42.172Z,18.05
2022-08-19T04:39:17.515Z,18.00
2022-08-19T04:42:04.670Z,17.13
2022-08-19T04:44:35.551Z,18.45
2022-08-19T04:47:11.129Z,18.02
2022-08-19T04:49:38.727Z,16.45
2022-08-19T04:52:06.427Z,16.50
2022-08-19T04:54:37.844Z,17.95
2022-08-19T04:57:09.703Z,17.83
2022-08-19T04:59:38.934Z,17.00
2022-08-19T05:02:08.564Z,15.73
2022-08-19T05:04:39.110Z,15.93
2022-08-19T05:07:08.714Z,16.48
2022-08-19T05:09:57.779Z,15.15
2022-08-19T05:12:28.779Z,15.57
2022-08-19T05:14:58.500Z,15.85
2022-08-19T05:17:29.060Z,16.27
2022-08-19T05:20:16.924Z,15.55
2022-08-19T05:22:47.676Z,14.73
2022-08-19T05:25:20.187Z,14.95
2022-08-19T05:27:48.519Z,15.85
2022-08-19T05:30:16.778Z,15.52
2022-08-19T05:32:44.736Z,14.40
2022-08-19T05:35:12.854Z,14.65
2022-08-19T05:37:41.558Z,15.65
2022-08-19T05:40:10.497Z,14.40
2022-08-19T05:42:38.561Z,15.27
2022-08-19T05:45:06.930Z,14.73
2022-08-19T05:47:34.318Z,13.55
2022-08-19T05:50:02.965Z,13.13
2022-08-19T05:52:33.510Z,12.75
2022-08-19T05:55:01.103Z,12.80
2022-08-19T05:57:30.165Z,13.00
2022-08-19T05:59:59.156Z,12.07
2022-08-19T06:02:27.816Z,12.80
2022-08-19T06:04:55.459Z,11.95
2022-08-19T06:07:23.139Z,11.35
2022-08-19T06:09:59.750Z,11.60
2022-08-19T06:12:35.124Z,10.95
2022-08-19T06:15:08.814Z,12.20
2022-08-19T06:17:36.397Z,11.15
2022-08-19T06:20:10.109Z,10.90
2022-08-19T06:22:42.533Z,10.88
2022-08-19T06:25:13.179Z,10.18
2022-08-19T06:27:58.643Z,10.38
2022-08-19T06:30:28.785Z,12.23
2022-08-19T06:32:56.240Z,12.68
2022-08-19T06:35:23.515Z,11.45
2022-08-19T06:37:50.702Z,10.55
2022-08-19T06:40:18.257Z,10.50
2022-08-19T06:42:53.001Z,9.93
2022-08-19T06:45:24.919Z,9.50
2022-08-19T06:48:02.127Z,9.18
2022-08-19T06:50:30.661Z,9.30
2022-08-19T06:52:57.885Z,10.57
2022-08-19T06:55:25.382Z,9.60
2022-08-19T06:57:54.481Z,9.60
2022-08-19T07:00:22.123Z,9.43
2022-08-19T07:02:53.401Z,9.25
2022-08-19T07:05:26.523Z,9.80
2022-08-19T07:07:54.137Z,8.77
2022-08-19T07:10:26.312Z,9.50
2022-08-19T07:12:54.935Z,10.15
2022-08-19T07:15:22.490Z,9.80
2022-08-19T07:17:52.648Z,11.02
2022-08-19T07:20:20.874Z,9.55
2022-08-19T07:22:49.336Z,9.68
2022-08-19T07:25:19.007Z,9.93
2022-08-19T07:27:48.713Z,9.65
2022-08-19T07:30:23.358Z,10.10
2022-08-19T07:32:54.247Z,10.38
2022-08-19T07:35:21.542Z,9.98
2022-08-19T07:37:48.904Z,9.95
2022-08-19T07:40:16.737Z,9.18
2022-08-19T07:42:44.246Z,9.23
2022-08-19T07:45:11.548Z,9.75
2022-08-19T07:47:47.521Z,9.85
2022-08-19T07:50:19.600Z,10.40
2022-08-19T07:52:49.061Z,9.77
2022-08-19T07:55:41.626Z,9.40
2022-08-19T07:58:06.956Z,9.23
2022-08-19T08:00:34.194Z,9.18
2022-08-19T08:03:01.568Z,9.95
2022-08-19T08:05:47.600Z,9.93
2022-08-19T08:08:34.011Z,8.88
2022-08-19T08:11:01.591Z,10.32
2022-08-19T08:13:29.210Z,9.80
2022-08-19T08:15:57.701Z,10.80
2022-08-19T08:18:27.617Z,9.95
2022-08-19T08:20:56.540Z,10.85
2022-08-19T08:23:26.474Z,9.80
2022-08-19T08:25:57.704Z,9.25
2022-08-19T08:28:26.176Z,10.60
2022-08-19T08:30:58.134Z,9.80
2022-08-19T08:33:33.926Z,9.55
2022-08-19T08:36:06.097Z,10.20
2022-08-19T08:38:39.151Z,10.38
2022-08-19T08:41:20.540Z,10.57
2022-08-19T08:43:52.184Z,9.30
2022-08-19T08:46:30.971Z,10.70
2022-08-19T08:49:09.829Z,10.18
2022-08-19T08:52:06.084Z,10.30
2022-08-19T08:54:41.405Z,10.05
2022-08-19T08:57:48.503Z,10.20
2022-08-19T09:00:22.061Z,9.70
2022-08-19T09:02:50.794Z,10.98
2022-08-19T09:05:22.168Z,9.02
2022-08-19T09:08:04.607Z,9.02
2022-08-19T09:10:44.434Z,8.85
2022-08-19T09:13:46.692Z,9.52
2022-08-19T09:16:21.943Z,9.88
2022-08-19T09:19:07.852Z,9.95
2022-08-19T09:21:35.974Z,9.80
2022-08-19T09:24:05.512Z,10.80
2022-08-19T09:26:47.665Z,9.50
2022-08-19T09:29:22.588Z,9.60
2022-08-19T09:31:51.173Z,9.43
2022-08-19T09:34:22.194Z,9.15
2022-08-19T09:36:55.673Z,9.20
2022-08-19T09:39:23.655Z,9.60
2022-08-19T09:41:52.593Z,10.02
2022-08-19T09:44:21.939Z,10.05
2022-08-19T09:46:49.739Z,9.77
2022-08-19T09:49:19.137Z,10.35
2022-08-19T09:51:51.491Z,9.98
2022-08-19T09:54:23.767Z,11.82
2022-08-19T09:56:54.910Z,9.88
2022-08-19T09:59:22.808Z,10.70
2022-08-19T10:01:50.212Z,10.27
2022-08-19T10:04:20.295Z,9.40
2022-08-19T10:06:53.749Z,9.15
2022-08-19T10:09:26.262Z,9.98
2022-08-19T10:12:06.110Z,10.17
2022-08-19T10:14:34.378Z,9.30
2022-08-19T10:17:18.026Z,9.00
2022-08-19T10:19:53.429Z,9.60
2022-08-19T10:22:25.603Z,9.20
2022-08-19T10:24:54.219Z,10.18
2022-08-19T10:27:21.880Z,9.48
2022-08-19T10:29:49.307Z,9.48
2022-08-19T10:32:17.012Z,9.50
2022-08-19T10:34:48.354Z,8.82
2022-08-19T10:37:23.684Z,8.68
2022-08-19T10:39:51.784Z,8.80
2022-08-19T10:42:20.108Z,7.93
2022-08-19T10:44:51.979Z,8.05
2022-08-19T10:47:25.791Z,9.90
2022-08-19T10:50:13.979Z,8.52
2022-08-19T10:52:49.300Z,8.48
2022-08-19T10:55:42.393Z,8.63
2022-08-19T10:58:14.972Z,8.35
2022-08-19T11:00:44.389Z,8.18
2022-08-19T11:03:12.472Z,8.52
2022-08-19T11:05:39.911Z,7.50
2022-08-19T11:08:22.260Z,8.90
2022-08-19T11:13:19.140Z,7.95
2022-08-19T11:15:46.993Z,7.95
2022-08-19T11:18:15.262Z,8.35
2022-08-19T11:20:42.655Z,7.93
2022-08-19T11:23:12.550Z,7.82
2022-08-19T11:25:40.866Z,8.52
2022-08-19T11:28:08.458Z,7.60
2022-08-19T11:30:38.873Z,7.30
2022-08-19T11:33:06.429Z,7.05
2022-08-19T11:35:34.739Z,7.88
2022-08-19T11:38:02.438Z,7.70
2022-08-19T11:40:30.701Z,8.30
2022-08-19T11:42:58.140Z,7.68
2022-08-19T11:45:28.332Z,7.53
2022-08-19T11:47:56.718Z,7.75
2022-08-19T11:50:25.137Z,7.20
2022-08-19T11:52:56.333Z,8.10
2022-08-19T11:55:24.194Z,8.10
2022-08-19T11:57:51.662Z,7.75
2022-08-19T12:00:19.429Z,8.27
2022-08-19T12:02:47.349Z,8.10
2022-08-19T12:05:16.067Z,7.35
2022-08-19T12:07:44.726Z,7.88
2022-08-19T12:10:13.028Z,7.53
2022-08-19T12:12:43.798Z,7.88
2022-08-19T12:15:15.775Z,7.78
2022-08-19T12:17:43.752Z,7.22
2022-08-19T12:20:14.715Z,7.68
2022-08-19T12:22:43.183Z,7.43
2022-08-19T12:25:12.112Z,7.05
2022-08-19T12:27:41.670Z,7.78
2022-08-19T12:30:13.004Z,7.60
2022-08-19T12:32:41.101Z,7.13
2022-08-19T12:35:12.320Z,7.20
2022-08-19T12:37:43.471Z,7.55
2022-08-19T12:40:12.815Z,7.20
2022-08-19T12:42:44.443Z,7.35
2022-08-19T12:45:14.338Z,6.90
2022-08-19T12:47:42.529Z,6.90
2022-08-19T12:50:13.568Z,7.38
2022-08-19T12:52:43.387Z,6.65
2022-08-19T12:55:12.240Z,6.72
2022-08-19T12:57:40.001Z,6.38
2022-08-19T13:00:14.638Z,6.90
2022-08-19T13:02:46.171Z,6.60
2022-08-19T13:05:21.864Z,7.72
2022-08-19T13:07:51.052Z,7.75
2022-08-19T13:10:20.715Z,6.55
2022-08-19T13:12:50.098Z,7.50
2022-08-19T13:15:23.863Z,6.80
2022-08-19T13:17:53.815Z,7.15
2022-08-19T13:20:22.733Z,7.72
2022-08-19T13:22:50.412Z,6.90
2022-08-19T13:25:20.227Z,6.25
2022-08-19T13:27:49.074Z,6.25
2022-08-19T13:30:35.468Z,6.93
2022-08-19T13:33:11.947Z,7.10
2022-08-19T13:35:41.691Z,6.82
2022-08-19T13:38:11.859Z,6.05
2022-08-19T13:40:41.162Z,6.38
2022-08-19T13:43:13.513Z,6.80
2022-08-19T13:45:56.523Z,6.20
2022-08-19T13:48:24.803Z,6.20
2022-08-19T13:50:52.611Z,6.65
2022-08-19T13:53:20.118Z,7.00
2022-08-19T13:55:47.623Z,6.70
2022-08-19T13:58:15.696Z,6.05
2022-08-19T14:00:46.161Z,7.13
2022-08-19T14:03:13.614Z,6.30
2022-08-19T14:05:41.390Z,5.70
2022-08-19T14:08:10.416Z,6.43
2022-08-19T14:10:37.848Z,6.25
2022-08-19T14:13:06.193Z,6.30
2022-08-19T14:15:34.115Z,6.35
2022-08-19T14:18:01.826Z,6.88
2022-08-19T14:20:30.738Z,6.97
2022-08-19T14:22:58.229Z,6.55
2022-08-19T14:25:28.594Z,6.68
2022-08-19T14:27:57.033Z,6.68
2022-08-19T14:30:28.685Z,6.35
2022-08-19T14:33:00.166Z,6.72
2022-08-19T14:35:29.165Z,6.93
2022-08-19T14:37:57.048Z,7.10
2022-08-19T14:40:27.278Z,6.00
2022-08-19T14:43:01.982Z,6.78
2022-08-19T14:45:30.269Z,6.22
2022-08-19T14:47:57.842Z,6.53
2022-08-19T14:50:25.121Z,6.50
2022-08-19T14:53:00.091Z,6.60
2022-08-19T14:55:28.083Z,7.22
2022-08-19T14:57:55.741Z,6.85
2022-08-19T15:00:25.969Z,6.68
2022-08-19T15:02:55.592Z,6.07
2022-08-19T15:05:23.408Z,5.90
2022-08-19T15:07:51.053Z,7.10
2022-08-19T15:10:18.870Z,6.05
2022-08-19T15:12:51.107Z,6.25
2022-08-19T15:15:19.457Z,6.45
2022-08-19T15:17:47.636Z,5.88
2022-08-19T15:20:18.157Z,5.95
2022-08-19T15:22:46.244Z,5.93
2022-08-19T15:25:16.568Z,5.50
2022-08-19T15:27:44.431Z,5.82
2022-08-19T15:30:12.801Z,6.57
2022-08-19T15:32:40.650Z,5.90
2022-08-19T15:35:08.699Z,6.07
2022-08-19T15:37:37.360Z,5.57
2022-08-19T15:40:07.664Z,5.97
2022-08-19T15:42:37.597Z,5.55
2022-08-19T15:45:07.444Z,6.43
2022-08-19T15:47:35.768Z,5.93
2022-08-19T15:50:10.491Z,6.10
2022-08-19T15:53:05.654Z,5.82
2022-08-19T15:55:36.510Z,5.65
2022-08-19T15:58:29.839Z,5.95
2022-08-19T16:01:17.838Z,6.18
2022-08-19T16:04:13.733Z,6.35
2022-08-19T16:06:45.561Z,5.82
2022-08-19T16:09:13.491Z,6.05
2022-08-19T16:11:45.489Z,5.82
2022-08-19T16:14:15.470Z,5.93
2022-08-19T16:16:47.287Z,6.68
2022-08-19T16:19:20.142Z,6.40
2022-08-19T16:24:19.422Z,5.55
2022-08-19T16:26:48.372Z,5.90
2022-08-19T16:29:22.088Z,5.53
2022-08-19T16:32:07.733Z,6.20
2022-08-19T16:34:35.138Z,5.43
2022-08-19T16:37:02.984Z,5.93
2022-08-19T16:39:30.492Z,5.60
2022-08-19T16:41:58.230Z,5.32
2022-08-19T16:44:29.439Z,6.22
2022-08-19T16:46:59.808Z,5.70
2022-08-19T16:49:54.504Z,6.07
2022-08-19T16:52:17.745Z,5.25
2022-08-19T16:54:45.373Z,5.45
2022-08-19T16:57:13.768Z,5.82
2022-08-19T16:59:42.606Z,6.10
2022-08-19T17:02:18.725Z,5.50
2022-08-19T17:04:58.363Z,5.32
2022-08-19T17:07:28.729Z,5.53
2022-08-19T17:09:57.215Z,5.68
2022-08-19T17:12:30.499Z,5.25
2022-08-19T17:15:01.646Z,5.88
2022-08-19T17:17:30.332Z,5.50
2022-08-19T17:20:02.680Z,5.60
2022-08-19T17:22:30.551Z,6.55
2022-08-19T17:24:58.639Z,5.20
2022-08-19T17:27:32.150Z,5.82
2022-08-19T17:30:02.845Z,5.15
2022-08-19T17:32:33.259Z,5.80
2022-08-19T17:35:01.039Z,6.10
2022-08-19T17:37:28.365Z,5.40
2022-08-19T17:39:55.718Z,5.50
2022-08-19T17:42:23.380Z,5.63
2022-08-19T17:44:51.105Z,5.85
2022-08-19T17:47:19.657Z,5.85
2022-08-19T17:49:47.391Z,6.13
2022-08-19T17:52:14.824Z,5.82
2022-08-19T17:54:42.345Z,6.75
2022-08-19T17:57:10.237Z,6.40
2022-08-19T17:59:37.770Z,6.07
2022-08-19T18:02:10.081Z,6.68
2022-08-19T18:04:38.576Z,6.50
2022-08-19T18:07:06.682Z,6.30
2022-08-19T18:09:41.431Z,6.70
2022-08-19T18:12:12.600Z,6.07
2022-08-19T18:14:40.714Z,7.63
2022-08-19T18:17:10.620Z,6.90
2022-08-19T18:19:41.557Z,6.60
2022-08-19T18:22:28.461Z,6.35
2022-08-19T18:24:57.851Z,6.60
2022-08-19T18:27:27.235Z,6.57
2022-08-19T18:29:59.768Z,6.55
2022-08-19T18:32:38.271Z,7.18
2022-08-19T18:35:15.985Z,6.40
2022-08-19T18:37:44.904Z,6.68
2022-08-19T18:40:38.473Z,6.60
2022-08-19T18:43:12.333Z,6.80
2022-08-19T18:46:00.437Z,6.70
2022-08-19T18:48:46.940Z,6.18
2022-08-19T18:51:16.401Z,6.72
2022-08-19T18:53:45.451Z,7.38
2022-08-19T18:56:14.391Z,7.00
2022-08-19T18:58:42.840Z,6.90
2022-08-19T19:01:17.679Z,6.97
2022-08-19T19:03:49.110Z,6.95
2022-08-19T19:06:20.313Z,7.10
2022-08-19T19:08:48.965Z,7.30
2022-08-19T19:11:34.342Z,6.80
2022-08-19T19:14:04.713Z,6.82
2022-08-19T19:16:32.901Z,7.40
2022-08-19T19:19:00.453Z,7.32
2022-08-19T19:21:30.845Z,7.47
2022-08-19T19:24:01.643Z,6.38
2022-08-19T19:26:29.414Z,6.85
2022-08-19T19:28:57.552Z,6.72
2022-08-19T19:31:26.994Z,7.38
2022-08-19T19:33:55.845Z,6.43
2022-08-19T19:36:23.985Z,6.18
2022-08-19T19:38:51.785Z,6.45
2022-08-19T19:41:24.649Z,6.28
2022-08-19T19:44:10.055Z,6.25
2022-08-19T19:46:45.278Z,6.30
2022-08-19T19:49:13.535Z,6.35
2022-08-19T19:51:41.563Z,7.10
2022-08-19T19:54:14.988Z,6.55
2022-08-19T19:56:48.638Z,6.05
2022-08-19T19:59:17.427Z,6.22
2022-08-19T20:01:47.105Z,6.65
2022-08-19T20:04:16.029Z,7.25
2022-08-19T20:06:45.269Z,6.43
2022-08-19T20:09:19.531Z,6.57
2022-08-19T20:11:47.490Z,6.30
2022-08-19T20:14:24.356Z,6.18
2022-08-19T20:16:53.609Z,6.22
2022-08-19T20:19:23.153Z,6.05
2022-08-19T20:21:51.560Z,6.38
2022-08-19T20:24:24.074Z,6.05
2022-08-19T20:26:53.597Z,6.07
2022-08-19T20:29:37.980Z,5.85
2022-08-19T20:32:07.135Z,6.50
2022-08-19T20:34:34.832Z,5.50
2022-08-19T20:37:02.915Z,5.95
2022-08-19T20:39:30.445Z,6.07
2022-08-19T20:41:58.360Z,5.68
2022-08-19T20:44:25.942Z,5.93
2022-08-19T20:46:56.760Z,5.57
2022-08-19T20:51:56.142Z,6.05
2022-08-19T20:54:24.350Z,5.85
2022-08-19T20:56:53.162Z,5.45
2022-08-19T20:59:21.151Z,5.95
2022-08-19T21:01:49.161Z,6.00
2022-08-19T21:04:16.705Z,5.97
2022-08-19T21:06:45.498Z,6.20
2022-08-19T21:09:13.932Z,5.38
2022-08-19T21:11:41.592Z,5.82
2022-08-19T21:14:08.926Z,5.68
2022-08-19T21:16:36.611Z,5.57
2022-08-19T21:19:05.074Z,5.85
2022-08-19T21:21:33.440Z,5.95
2022-08-19T21:24:01.813Z,6.55
2022-08-19T21:26:29.384Z,5.45
2022-08-19T21:28:56.751Z,5.68
2022-08-19T21:31:24.221Z,6.30
2022-08-19T21:33:51.886Z,6.07
2022-08-19T21:36:19.289Z,6.50
2022-08-19T21:38:46.763Z,5.82
2022-08-19T21:41:14.651Z,6.07
2022-08-19T21:43:42.211Z,6.25
2022-08-19T21:46:09.683Z,6.00
2022-08-19T21:48:37.347Z,5.88
2022-08-19T21:51:05.186Z,5.90
2022-08-19T21:53:34.129Z,5.80
2022-08-19T21:56:03.830Z,5.32
2022-08-19T21:58:31.260Z,6.15
2022-08-19T22:01:00.004Z,5.50
2022-08-19T22:03:28.254Z,5.75
2022-08-19T22:05:55.774Z,6.18
2022-08-19T22:08:23.388Z,6.65
2022-08-19T22:10:51.314Z,5.57
2022-08-19T22:13:20.557Z,5.70
2022-08-19T22:15:48.929Z,6.28
2022-08-19T22:18:17.839Z,5.85
2022-08-19T22:20:45.490Z,6.00
2022-08-19T22:23:12.882Z,6.00
2022-08-19T22:25:45.602Z,6.03
2022-08-19T22:28:14.901Z,5.80
2022-08-19T22:30:51.273Z,6.03
2022-08-19T22:33:19.653Z,6.00
2022-08-19T22:35:47.733Z,5.53
2022-08-19T22:38:15.794Z,5.35
2022-08-19T22:40:47.230Z,6.22
2022-08-19T22:43:26.268Z,5.82
2022-08-19T22:45:55.139Z,5.90
2022-08-19T22:48:27.013Z,5.85
2022-08-19T22:51:13.740Z,5.82
2022-08-19T22:53:45.203Z,6.18
2022-08-19T22:56:15.453Z,6.70
2022-08-19T22:58:43.817Z,6.40
2022-08-19T23:01:24.911Z,6.05
2022-08-19T23:03:56.584Z,6.28
2022-08-19T23:06:26.963Z,5.30
2022-08-19T23:09:05.242Z,6.47
2022-08-19T23:11:38.042Z,6.43
2022-08-19T23:14:07.468Z,5.88
2022-08-19T23:16:36.306Z,6.18
2022-08-19T23:19:03.877Z,6.70
2022-08-19T23:21:31.610Z,6.00
2022-08-19T23:23:59.159Z,5.72
2022-08-19T23:26:26.420Z,6.00
2022-08-19T23:29:12.418Z,5.57
2022-08-19T23:31:39.965Z,6.32
2022-08-19T23:34:07.426Z,6.65
2022-08-19T23:36:34.849Z,6.53
2022-08-19T23:39:02.090Z,6.60
2022-08-19T23:41:29.721Z,6.30
2022-08-19T23:43:57.638Z,6.50
2022-08-19T23:46:28.670Z,6.47
2022-08-19T23:48:58.063Z,7.00
2022-08-19T23:51:26.472Z,6.53
2022-08-19T23:53:53.903Z,6.40
2022-08-19T23:56:21.939Z,6.70
2022-08-19T23:58:49.324Z,6.53
